createdAt,value
2022-08-07T00:01:12.566Z,100.00
2022-08-07T00:03:55.132Z,93.62
2022-08-07T00:06:29.779Z,100.00
2022-08-07T00:09:16.188Z,100.00
2022-08-07T00:11:54.180Z,100.00
2022-08-07T00:14:30.158Z,100.00
2022-08-07T00:17:00.414Z,100.00
2022-08-07T00:20:00.481Z,100.00
2022-08-07T00:22:24.769Z,100.00
2022-08-07T00:25:05.115Z,100.00
2022-08-07T00:27:51.897Z,100.00
2022-08-07T00:30:27.764Z,100.00
2022-08-07T00:32:57.412Z,100.00
2022-08-07T00:35:25.577Z,100.00
2022-08-07T00:37:53.630Z,100.00
2022-08-07T00:40:40.191Z,100.00
2022-08-07T00:43:10.764Z,100.00
2022-08-07T00:45:56.617Z,100.00
2022-08-07T00:48:25.115Z,100.00
2022-08-07T00:50:59.833Z,100.00
2022-08-07T00:53:27.039Z,100.00
2022-08-07T00:56:13.749Z,100.00
2022-08-07T00:58:47.124Z,100.00
2022-08-07T01:01:18.438Z,100.00
2022-08-07T01:03:55.832Z,100.00
2022-08-07T01:06:27.745Z,100.00
2022-08-07T01:08:55.713Z,100.00
2022-08-07T01:12:11.076Z,100.00
2022-08-07T01:14:10.213Z,100.00
2022-08-07T01:16:37.701Z,100.00
2022-08-07T01:19:18.130Z,100.00
2022-08-07T01:21:48.488Z,100.00
2022-08-07T01:24:21.473Z,100.00
2022-08-07T01:26:52.249Z,100.00
2022-08-07T01:29:22.062Z,100.00
2022-08-07T01:31:50.062Z,100.00
2022-08-07T01:34:18.601Z,100.00
2022-08-07T01:36:52.611Z,100.00
2022-08-07T01:39:39.460Z,100.00
2022-08-07T01:42:38.555Z,100.00
2022-08-07T01:44:54.169Z,100.00
2022-08-07T01:48:20.585Z,100.00
2022-08-07T01:50:09.444Z,100.00
2022-08-07T01:52:40.775Z,100.00
2022-08-07T01:55:21.985Z,100.00
2022-08-07T01:58:06.847Z,100.00
2022-08-07T02:00:48.944Z,100.00
2022-08-07T02:03:25.032Z,100.00
2022-08-07T02:06:02.415Z,100.00
2022-08-07T02:08:40.539Z,100.00
2022-08-07T02:11:10.463Z,100.00
2022-08-07T02:14:02.317Z,100.00
2022-08-07T02:16:33.374Z,100.00
2022-08-07T02:19:05.611Z,100.00
2022-08-07T02:21:56.759Z,100.00
2022-08-07T02:24:26.271Z,100.00
2022-08-07T02:27:00.127Z,100.00
2022-08-07T02:29:29.173Z,100.00
2022-08-07T02:31:57.962Z,100.00
2022-08-07T02:34:27.224Z,100.00
2022-08-07T02:36:54.996Z,100.00
2022-08-07T02:39:42.921Z,100.00
2022-08-07T02:42:14.661Z,100.00
2022-08-07T02:44:47.858Z,100.00
2022-08-07T02:47:19.568Z,100.00
2022-08-07T02:50:04.934Z,100.00
2022-08-07T02:52:37.661Z,100.00
2022-08-07T02:55:27.300Z,100.00
2022-08-07T02:57:59.771Z,100.00
2022-08-07T03:00:28.624Z,100.00
2022-08-07T03:02:57.901Z,100.00
2022-08-07T03:05:25.143Z,100.00
2022-08-07T03:08:08.188Z,100.00
2022-08-07T03:10:41.124Z,100.00
2022-08-07T03:13:19.415Z,100.00
2022-08-07T03:15:56.696Z,100.00
2022-08-07T03:18:35.097Z,100.00
2022-08-07T03:21:05.215Z,100.00
2022-08-07T03:24:19.927Z,100.00
2022-08-07T03:26:29.998Z,100.00
2022-08-07T03:28:58.716Z,100.00
2022-08-07T03:31:42.384Z,100.00
2022-08-07T03:34:18.848Z,100.00
2022-08-07T03:36:51.855Z,100.00
2022-08-07T03:39:59.193Z,100.00
2022-08-07T03:42:08.517Z,100.00
2022-08-07T03:44:37.774Z,100.00
2022-08-07T03:47:13.948Z,100.00
2022-08-07T03:49:52.014Z,100.00
2022-08-07T03:52:26.150Z,100.00
2022-08-07T03:55:06.906Z,100.00
2022-08-07T03:58:34.821Z,100.00
2022-08-07T04:00:29.329Z,100.00
2022-08-07T04:02:59.426Z,100.00
2022-08-07T04:05:39.640Z,100.00
2022-08-07T04:08:12.186Z,100.00
2022-08-07T04:10:42.417Z,100.00
2022-08-07T04:13:15.143Z,100.00
2022-08-07T04:15:43.547Z,100.00
2022-08-07T04:18:56.177Z,100.00
2022-08-07T04:21:02.972Z,100.00
2022-08-07T04:23:43.443Z,100.00
2022-08-07T04:26:21.982Z,100.00
2022-08-07T04:28:48.935Z,100.00
2022-08-07T04:31:20.085Z,100.00
2022-08-07T04:33:55.165Z,100.00
2022-08-07T04:36:26.088Z,100.00
2022-08-07T04:38:53.413Z,100.00
2022-08-07T04:41:20.704Z,100.00
2022-08-07T04:44:12.542Z,100.00
2022-08-07T04:47:04.704Z,100.00
2022-08-07T04:49:57.483Z,100.00
2022-08-07T04:52:53.796Z,100.00
2022-08-07T04:58:10.763Z,100.00
2022-08-07T04:59:17.536Z,100.00
2022-08-07T05:01:51.391Z,100.00
2022-08-07T05:04:47.318Z,100.00
2022-08-07T05:07:36.901Z,100.00
2022-08-07T05:10:14.189Z,100.00
2022-08-07T05:12:53.722Z,100.00
2022-08-07T05:15:26.904Z,100.00
2022-08-07T05:18:06.153Z,100.00
2022-08-07T05:20:42.917Z,100.00
2022-08-07T05:23:36.807Z,100.00
2022-08-07T05:26:11.774Z,100.00
2022-08-07T05:28:48.458Z,100.00
2022-08-07T05:31:20.632Z,100.00
2022-08-07T05:34:04.641Z,100.00
2022-08-07T05:36:35.371Z,100.00
2022-08-07T05:40:13.914Z,100.00
2022-08-07T05:42:02.375Z,100.00
2022-08-07T05:44:35.066Z,100.00
2022-08-07T05:47:18.374Z,100.00
2022-08-07T05:49:50.714Z,100.00
2022-08-07T05:52:20.334Z,100.00
2022-08-07T05:54:56.073Z,100.00
2022-08-07T05:57:30.012Z,100.00
2022-08-07T06:00:01.135Z,100.00
2022-08-07T06:02:31.540Z,100.00
2022-08-07T06:05:04.782Z,100.00
2022-08-07T06:08:09.094Z,100.00
2022-08-07T06:10:21.667Z,100.00
2022-08-07T06:12:49.585Z,100.00
2022-08-07T06:15:19.897Z,100.00
2022-08-07T06:17:53.657Z,100.00
2022-08-07T06:20:25.648Z,100.00
2022-08-07T06:23:02.336Z,100.00
2022-08-07T06:25:54.423Z,100.00
2022-08-07T06:28:27.739Z,100.00
2022-08-07T06:30:55.748Z,100.00
2022-08-07T06:33:22.936Z,100.00
2022-08-07T06:36:12.137Z,100.00
2022-08-07T06:38:36.630Z,100.00
2022-08-07T06:42:00.505Z,100.00
2022-08-07T06:44:21.823Z,100.00
2022-08-07T06:46:53.809Z,100.00
2022-08-07T06:49:51.532Z,100.00
2022-08-07T06:52:32.062Z,100.00
2022-08-07T06:55:34.246Z,100.00
2022-08-07T06:58:10.401Z,100.00
2022-08-07T07:00:42.279Z,100.00
2022-08-07T07:03:13.690Z,100.00
2022-08-07T07:06:04.236Z,100.00
2022-08-07T07:08:30.897Z,100.00
2022-08-07T07:11:00.991Z,100.00
2022-08-07T07:13:40.860Z,98.30
2022-08-07T07:16:30.202Z,94.15
2022-08-07T07:19:11.498Z,97.80
2022-08-07T07:22:12.053Z,80.37
2022-08-07T07:24:42.980Z,92.27
2022-08-07T07:27:35.779Z,94.04
2022-08-07T07:30:32.492Z,90.67
2022-08-07T07:33:01.846Z,82.43
2022-08-07T07:35:33.443Z,82.57
2022-08-07T07:38:04.790Z,85.44
2022-08-07T07:40:34.234Z,80.58
2022-08-07T07:43:15.006Z,80.10
2022-08-07T07:46:37.326Z,82.09
2022-08-07T07:48:36.531Z,77.63
2022-08-07T07:51:07.810Z,75.42
2022-08-07T07:53:51.717Z,73.42
2022-08-07T07:56:30.115Z,75.48
2022-08-07T07:58:59.993Z,72.12
2022-08-07T08:02:03.109Z,74.28
2022-08-07T08:04:20.328Z,76.24
2022-08-07T08:06:53.950Z,73.99
2022-08-07T08:09:29.577Z,71.38
2022-08-07T08:12:02.931Z,70.06
2022-08-07T08:14:34.521Z,71.85
2022-08-07T08:17:56.389Z,69.29
2022-08-07T08:20:19.579Z,66.26
2022-08-07T08:23:02.161Z,69.69
2022-08-07T08:25:52.284Z,68.03
2022-08-07T08:28:37.922Z,70.23
2022-08-07T08:31:08.641Z,68.24
2022-08-07T08:33:49.564Z,66.82
2022-08-07T08:36:29.660Z,60.92
2022-08-07T08:39:01.957Z,64.48
2022-08-07T08:42:03.450Z,56.20
2022-08-07T08:44:44.721Z,65.50
2022-08-07T08:47:52.890Z,59.23
2022-08-07T08:50:34.823Z,56.18
2022-08-07T08:53:12.218Z,56.13
2022-08-07T08:55:55.362Z,61.60
2022-08-07T08:58:28.857Z,59.15
2022-08-07T09:01:14.800Z,57.22
2022-08-07T09:04:14.733Z,60.34
2022-08-07T09:07:06.197Z,58.44
2022-08-07T09:10:19.307Z,55.77
2022-08-07T09:12:58.764Z,57.33
2022-08-07T09:16:25.228Z,57.87
2022-08-07T09:18:33.136Z,56.15
2022-08-07T09:21:34.249Z,56.48
2022-08-07T09:24:58.632Z,55.00
2022-08-07T09:28:00.413Z,56.89
2022-08-07T09:30:54.906Z,57.90
2022-08-07T09:33:56.582Z,54.11
2022-08-07T09:36:37.452Z,56.25
2022-08-07T09:39:53.834Z,54.95
2022-08-07T09:42:34.915Z,56.41
2022-08-07T09:47:37.351Z,52.33
2022-08-07T09:49:02.234Z,47.09
2022-08-07T09:52:09.701Z,47.59
2022-08-07T09:55:28.909Z,50.76
2022-08-07T09:58:32.046Z,45.88
2022-08-07T10:01:51.500Z,43.23
2022-08-07T10:04:38.250Z,47.41
2022-08-07T10:07:52.355Z,44.92
2022-08-07T10:11:59.418Z,47.51
2022-08-07T10:14:30.507Z,50.46
2022-08-07T10:17:18.604Z,49.68
2022-08-07T10:20:06.738Z,47.21
2022-08-07T10:22:57.833Z,46.39
2022-08-07T10:25:42.326Z,48.06
2022-08-07T10:28:16.205Z,44.33
2022-08-07T10:30:53.559Z,44.32
2022-08-07T10:33:23.600Z,43.61
2022-08-07T10:36:53.477Z,45.01
2022-08-07T10:40:03.022Z,45.67
2022-08-07T10:42:37.604Z,43.71
2022-08-07T10:45:19.634Z,46.40
2022-08-07T10:48:34.644Z,46.86
2022-08-07T10:51:16.682Z,45.94
2022-08-07T10:54:17.407Z,45.13
2022-08-07T10:57:09.444Z,44.07
2022-08-07T10:59:58.098Z,47.14
2022-08-07T11:02:33.498Z,46.71
2022-08-07T11:05:35.631Z,47.21
2022-08-07T11:08:39.013Z,45.90
2022-08-07T11:11:10.502Z,47.70
2022-08-07T11:14:46.406Z,46.49
2022-08-07T11:17:02.215Z,47.64
2022-08-07T11:19:50.141Z,48.39
2022-08-07T11:22:45.921Z,47.20
2022-08-07T11:25:36.200Z,47.66
2022-08-07T11:28:35.239Z,47.28
2022-08-07T11:31:02.445Z,49.79
2022-08-07T11:34:03.032Z,48.50
2022-08-07T11:36:47.623Z,49.70
2022-08-07T11:39:59.260Z,52.80
2022-08-07T11:42:33.996Z,54.49
2022-08-07T11:45:49.785Z,54.37
2022-08-07T11:48:35.378Z,51.60
2022-08-07T11:51:44.646Z,50.77
2022-08-07T11:54:25.588Z,53.69
2022-08-07T11:57:12.779Z,52.60
2022-08-07T12:00:19.602Z,55.03
2022-08-07T12:03:44.385Z,53.49
2022-08-07T12:06:57.297Z,58.13
2022-08-07T12:09:36.190Z,54.36
2022-08-07T12:12:10.839Z,52.19
2022-08-07T12:14:56.051Z,58.18
2022-08-07T12:17:34.305Z,52.39
2022-08-07T12:20:30.307Z,57.53
2022-08-07T12:23:14.550Z,59.06
2022-08-07T12:26:22.337Z,57.90
2022-08-07T12:29:16.051Z,56.63
2022-08-07T12:32:04.035Z,59.70
2022-08-07T12:34:38.896Z,60.46
2022-08-07T12:37:16.797Z,61.36
2022-08-07T12:39:52.575Z,60.30
2022-08-07T12:42:27.943Z,62.38
2022-08-07T12:44:58.352Z,58.69
2022-08-07T12:47:40.538Z,57.55
2022-08-07T12:50:39.286Z,61.01
2022-08-07T12:54:02.951Z,60.71
2022-08-07T12:56:51.227Z,60.84
2022-08-07T12:59:53.985Z,54.94
2022-08-07T13:02:25.108Z,59.21
2022-08-07T13:06:03.857Z,60.56
2022-08-07T13:08:40.269Z,63.70
2022-08-07T13:11:09.912Z,61.25
2022-08-07T13:13:57.651Z,58.37
2022-08-07T13:16:36.792Z,61.78
2022-08-07T13:19:46.130Z,62.58
2022-08-07T13:22:31.381Z,61.05
2022-08-07T13:25:15.220Z,64.14
2022-08-07T13:28:10.806Z,67.07
2022-08-07T13:31:01.738Z,65.67
2022-08-07T13:34:33.089Z,65.64
2022-08-07T13:36:49.154Z,62.14
2022-08-07T13:40:32.871Z,65.26
2022-08-07T13:42:25.028Z,66.30
2022-08-07T13:45:11.541Z,66.36
2022-08-07T13:48:05.552Z,64.23
2022-08-07T13:50:32.542Z,63.42
2022-08-07T13:53:04.139Z,64.50
2022-08-07T13:55:34.067Z,62.17
2022-08-07T13:58:56.319Z,66.40
2022-08-07T14:01:26.434Z,66.07
2022-08-07T14:04:06.668Z,64.31
2022-08-07T14:06:39.244Z,65.53
2022-08-07T14:10:02.375Z,66.48
2022-08-07T14:12:07.229Z,67.06
2022-08-07T14:14:54.658Z,66.41
2022-08-07T14:18:12.181Z,68.70
2022-08-07T14:20:40.816Z,67.48
2022-08-07T14:23:58.589Z,69.37
2022-08-07T14:26:28.461Z,67.14
2022-08-07T14:29:08.486Z,69.81
2022-08-07T14:31:42.725Z,68.15
2022-08-07T14:34:22.742Z,69.42
2022-08-07T14:36:55.923Z,67.08
2022-08-07T14:40:16.615Z,64.52
2022-08-07T14:42:22.563Z,66.64
2022-08-07T14:45:22.196Z,66.60
2022-08-07T14:50:43.003Z,64.76
2022-08-07T14:53:10.772Z,64.50
2022-08-07T14:55:55.803Z,67.88
2022-08-07T14:58:28.170Z,67.94
2022-08-07T15:00:59.290Z,70.56
2022-08-07T15:06:15.991Z,69.42
2022-08-07T15:08:50.068Z,72.14
2022-08-07T15:11:53.653Z,72.50
2022-08-07T15:14:25.476Z,69.27
2022-08-07T15:17:01.148Z,71.86
2022-08-07T15:20:31.117Z,70.72
2022-08-07T15:22:32.897Z,71.16
2022-08-07T15:28:32.168Z,73.32
2022-08-07T15:30:59.545Z,71.46
2022-08-07T15:33:35.932Z,72.98
2022-08-07T15:36:06.732Z,71.98
2022-08-07T15:42:46.201Z,70.26
2022-08-07T15:44:17.354Z,71.56
2022-08-07T15:46:47.426Z,69.79
2022-08-07T15:50:05.831Z,68.08
2022-08-07T15:52:30.265Z,68.49
2022-08-07T15:55:02.353Z,70.42
2022-08-07T15:57:39.833Z,68.00
2022-08-07T16:00:31.804Z,69.05
2022-08-07T16:03:22.072Z,68.48
2022-08-07T16:06:02.489Z,70.28
2022-08-07T16:08:38.754Z,71.88
2022-08-07T16:11:26.844Z,72.75
2022-08-07T16:14:20.477Z,76.77
2022-08-07T16:16:49.697Z,76.24
2022-08-07T16:19:19.327Z,77.69
2022-08-07T16:22:36.276Z,76.31
2022-08-07T16:25:52.347Z,71.54
2022-08-07T16:30:05.841Z,73.44
2022-08-07T16:31:57.650Z,73.80
2022-08-07T16:34:40.293Z,73.77
2022-08-07T16:38:04.682Z,74.31
2022-08-07T16:40:28.443Z,75.53
2022-08-07T16:44:03.953Z,74.68
2022-08-07T16:47:15.815Z,71.26
2022-08-07T16:50:28.931Z,70.86
2022-08-07T16:54:01.270Z,74.68
2022-08-07T16:56:39.638Z,74.39
2022-08-07T16:59:46.829Z,73.53
2022-08-07T17:02:51.529Z,75.16
2022-08-07T17:06:19.758Z,74.31
2022-08-07T17:09:08.671Z,72.29
2022-08-07T17:12:01.291Z,75.66
2022-08-07T17:14:44.177Z,80.13
2022-08-07T17:17:49.169Z,79.87
2022-08-07T17:20:35.558Z,78.90
2022-08-07T17:23:22.447Z,81.30
2022-08-07T17:26:24.304Z,80.73
2022-08-07T17:30:12.898Z,83.91
2022-08-07T17:32:30.627Z,83.25
2022-08-07T17:35:49.547Z,83.37
2022-08-07T17:38:50.327Z,81.74
2022-08-07T17:42:04.681Z,80.34
2022-08-07T17:44:45.433Z,82.99
2022-08-07T17:47:38.165Z,85.24
2022-08-07T17:50:19.432Z,83.82
2022-08-07T17:52:52.354Z,84.32
2022-08-07T17:56:01.335Z,86.51
2022-08-07T17:58:46.308Z,85.68
2022-08-07T18:01:27.698Z,85.58
2022-08-07T18:04:16.786Z,87.01
2022-08-07T18:07:19.125Z,87.01
2022-08-07T18:10:04.684Z,87.12
2022-08-07T18:12:41.808Z,87.18
2022-08-07T18:15:38.177Z,88.47
2022-08-07T18:18:46.719Z,89.38
2022-08-07T18:21:30.072Z,89.55
2022-08-07T18:24:33.255Z,89.38
2022-08-07T18:27:38.985Z,90.96
2022-08-07T18:30:32.935Z,88.78
2022-08-07T18:33:23.592Z,89.39
2022-08-07T18:36:08.735Z,90.06
2022-08-07T18:39:01.213Z,90.02
2022-08-07T18:42:08.302Z,90.72
2022-08-07T18:47:44.787Z,90.90
2022-08-07T18:50:39.611Z,92.53
2022-08-07T18:53:39.348Z,93.10
2022-08-07T18:56:40.754Z,93.12
2022-08-07T18:59:58.614Z,92.32
2022-08-07T19:02:52.550Z,93.34
2022-08-07T19:06:01.852Z,93.56
2022-08-07T19:08:29.010Z,93.28
2022-08-07T19:11:34.881Z,93.80
2022-08-07T19:14:17.966Z,94.73
2022-08-07T19:17:06.723Z,94.74
2022-08-07T19:19:55.905Z,95.64
2022-08-07T19:22:37.022Z,97.71
2022-08-07T19:25:12.415Z,97.44
2022-08-07T19:30:55.402Z,98.42
2022-08-07T19:31:29.917Z,99.92
2022-08-07T19:33:44.498Z,99.76
2022-08-07T19:36:27.890Z,100.00
2022-08-07T19:38:58.655Z,100.00
2022-08-07T19:41:39.386Z,100.00
2022-08-07T19:44:22.046Z,100.00
2022-08-07T19:46:55.601Z,100.00
2022-08-07T19:49:58.324Z,100.00
2022-08-07T19:52:18.556Z,100.00
2022-08-07T19:54:55.741Z,100.00
2022-08-07T19:58:01.510Z,100.00
2022-08-07T20:00:28.594Z,100.00
2022-08-07T20:03:03.317Z,100.00
2022-08-07T20:05:59.859Z,100.00
2022-08-07T20:08:30.138Z,100.00
2022-08-07T20:11:01.734Z,100.00
2022-08-07T20:13:49.781Z,100.00
2022-08-07T20:16:35.568Z,100.00
2022-08-07T20:19:06.171Z,100.00
2022-08-07T20:21:41.829Z,100.00
2022-08-07T20:24:18.140Z,100.00
2022-08-07T20:26:52.166Z,100.00
2022-08-07T20:29:58.294Z,100.00
2022-08-07T20:32:40.596Z,100.00
2022-08-07T20:35:26.635Z,100.00
2022-08-07T20:37:59.849Z,100.00
2022-08-07T20:40:32.249Z,100.00
2022-08-07T20:43:02.956Z,100.00
2022-08-07T20:46:27.695Z,100.00
2022-08-07T20:48:30.294Z,100.00
2022-08-07T20:51:03.241Z,100.00
2022-08-07T20:54:03.851Z,100.00
2022-08-07T20:56:29.119Z,100.00
2022-08-07T20:59:01.800Z,100.00
2022-08-07T21:01:45.402Z,100.00
2022-08-07T21:04:22.741Z,100.00
2022-08-07T21:06:56.628Z,100.00
2022-08-07T21:09:52.164Z,100.00
2022-08-07T21:12:28.614Z,100.00
2022-08-07T21:14:58.839Z,100.00
2022-08-07T21:18:03.121Z,100.00
2022-08-07T21:20:26.667Z,100.00
2022-08-07T21:23:08.213Z,100.00
2022-08-07T21:25:56.329Z,100.00
2022-08-07T21:28:48.824Z,100.00
2022-08-07T21:32:46.840Z,100.00
2022-08-07T21:34:48.706Z,100.00
2022-08-07T21:37:58.123Z,100.00
2022-08-07T21:40:41.516Z,100.00
2022-08-07T21:43:17.308Z,100.00
2022-08-07T21:46:10.418Z,100.00
2022-08-07T21:49:02.526Z,100.00
2022-08-07T21:51:51.867Z,100.00
2022-08-07T21:54:36.104Z,100.00
2022-08-07T21:57:44.536Z,100.00
2022-08-07T22:00:22.895Z,100.00
2022-08-07T22:03:17.226Z,100.00
2022-08-07T22:05:51.467Z,100.00
2022-08-07T22:08:26.298Z,100.00
2022-08-07T22:10:59.864Z,100.00
2022-08-07T22:13:50.524Z,100.00
2022-08-07T22:16:44.259Z,100.00
2022-08-07T22:19:42.067Z,100.00
2022-08-07T22:22:20.796Z,100.00
2022-08-07T22:25:08.219Z,100.00
2022-08-07T22:28:07.909Z,100.00
2022-08-07T22:30:31.858Z,100.00
2022-08-07T22:33:12.835Z,100.00
2022-08-07T22:36:11.987Z,100.00
2022-08-07T22:38:54.178Z,100.00
2022-08-07T22:42:04.141Z,100.00
2022-08-07T22:44:21.852Z,100.00
2022-08-07T22:47:23.182Z,100.00
2022-08-07T22:50:20.491Z,100.00
2022-08-07T22:53:15.129Z,100.00
2022-08-07T22:56:00.270Z,100.00
2022-08-07T22:58:33.094Z,100.00
2022-08-07T23:01:18.180Z,100.00
2022-08-07T23:03:58.802Z,100.00
2022-08-07T23:07:04.408Z,100.00
2022-08-07T23:10:35.035Z,100.00
2022-08-07T23:13:09.240Z,100.00
2022-08-07T23:16:06.913Z,100.00
2022-08-07T23:19:13.706Z,100.00
2022-08-07T23:21:52.844Z,100.00
2022-08-07T23:25:09.024Z,100.00
2022-08-07T23:28:22.341Z,100.00
2022-08-07T23:31:06.391Z,100.00
2022-08-07T23:34:36.090Z,100.00
2022-08-07T23:37:32.196Z,100.00
2022-08-07T23:40:21.014Z,100.00
2022-08-07T23:43:16.452Z,100.00
2022-08-07T23:46:02.676Z,100.00
2022-08-07T23:49:15.224Z,100.00
2022-08-07T23:53:00.427Z,100.00
2022-08-07T23:55:12.923Z,100.00
2022-08-07T23:58:24.163Z,100.00
